FIMP/MRU METAR and TAF weather

Enter ICAO airport designator
Station Type Date Time Source
FIMP METAR 2022/09/26 10:00 UTC NOAA

FIMP 261000Z 12015KT 9999 FEW020 25/16 Q1023


Station Type Date Time Source
FIMP Decoded METAR 2022/09/26 10:00 UTC NOAA

Plaisance Mauritius , Mauritius (FIMP) 20-26S 057-40E 57M
Sep 26, 2022 - 06:00 AM EDT / 2022.09.26 1000 UTC
Wind: from the ESE (120 degrees) at 17 MPH (15 KT):0
Visibility: greater than 7 mile(s):0
Sky conditions: mostly clear
Temperature: 77 F (25 C)
Dew Point: 60 F (16 C)
Relative Humidity: 57%
Pressure (altimeter): 30.21 in. Hg (1023 hPa)
ob: FIMP 261000Z 12015KT 9999 FEW020 25/16 Q1023
cycle: 10

Station Type Date Time Source
FIMP TAF 2022/09/26 06:27 UTC NOAA

TAF TAF COR FIMP 260505Z 2606/2712 11013G25KT 9999 SCT017 PROB30
TEMPO 2618/2703 7000 -SHRA FEW008 BKN015

Example: see airport list